Time;durP1;ratioP1;P1;durP2;ratioP2;P2;SDS_P1;SDS_P2;PMS_P1;PMS_P2;Temp;Humidity;BMP_temperature;BMP_pressure;BME280_temperature;BME280_humidity;BME280_pressure;Samples;Min_cycle;Max_cycle;Signal;HPM_P1;HPM_P2
2022/05/23 00:00:33;;;;;;;2.53;1.33;;;;;;;12.83;54.79;100002.14;1398188;93;21547;-83
2022/05/23 00:02:58;;;;;;;4.73;0.80;;;;;;;12.74;55.01;100004.00;1401109;91;21511;-83
2022/05/23 00:05:25;;;;;;;5.27;1.20;;;;;;;12.65;55.49;99996.56;1393286;92;21415;-83
2022/05/23 00:07:51;;;;;;;2.07;0.70;;;;;;;12.54;55.54;99995.61;1400429;92;22390;-82
2022/05/23 00:10:21;;;;;;;6.33;2.00;;;;;;;12.47;55.29;100002.61;1402707;92;21696;-82
2022/05/23 00:12:49;;;;;;;10.28;2.52;;;;;;;12.41;56.72;99997.98;1384962;92;21408;-81
2022/05/23 00:15:15;;;;;;;5.47;2.43;;;;;;;12.33;57.33;99998.83;1380279;92;22410;-82
2022/05/23 00:17:44;;;;;;;4.97;1.83;;;;;;;12.24;57.45;100000.35;1389367;93;21490;-82
2022/05/23 00:20:14;;;;;;;3.73;1.60;;;;;;;12.16;57.17;100003.83;1390418;93;21556;-82
2022/05/23 00:22:41;;;;;;;5.00;1.40;;;;;;;11.99;57.32;100005.67;1395720;93;21597;-83
2022/05/23 00:25:10;;;;;;;2.67;0.90;;;;;;;11.99;57.32;100005.67;1392037;92;21503;-83
2022/05/23 00:27:40;;;;;;;1.93;1.00;;;;;;;11.95;57.37;100009.16;1402610;92;23621;-82
2022/05/23 00:30:12;;;;;;;9.35;1.22;;;;;;;11.90;57.52;100021.27;1420799;91;21504;-82
2022/05/23 00:35:19;;;;;;;2.33;0.87;;;;;;;11.79;57.80;100024.20;1351165;95;22443;-82
2022/05/23 00:37:48;;;;;;;1.73;1.33;;;;;;;11.71;58.41;100024.55;1403567;92;21673;-82
2022/05/23 00:43:13;;;;;;;3.17;1.37;;;;;;;11.66;58.52;100022.88;1407978;92;21481;-82
2022/05/23 00:43:26;;;;;;;9.30;1.57;;;;;;;11.61;58.60;100025.69;1406837;92;21702;-81
2022/05/23 00:48:26;;;;;;;;;;;;;;;11.47;59.23;100031.13;1401107;92;21658;-82
2022/05/23 00:51:00;;;;;;;2.80;1.20;;;;;;;11.42;61.38;100042.23;1375623;93;20335;-81
2022/05/23 00:53:47;;;;;;;3.03;2.00;;;;;;;11.35;59.81;100043.03;1393579;93;21473;-80
2022/05/23 00:56:16;;;;;;;4.03;1.43;;;;;;;11.30;61.28;100045.66;1392133;93;21466;-81
2022/05/23 00:58:51;;;;;;;10.23;2.13;;;;;;;11.27;60.83;100049.95;1399926;93;21488;-80
2022/05/23 01:01:22;;;;;;;3.07;1.30;;;;;;;11.23;62.04;100048.63;1413601;92;21517;-81
2022/05/23 01:03:49;;;;;;;4.77;1.40;;;;;;;11.22;62.12;100042.16;1391626;92;21490;-80
2022/05/23 01:06:16;;;;;;;5.27;1.63;;;;;;;11.21;62.29;100047.13;1399933;92;21482;-80
2022/05/23 01:08:45;;;;;;;4.90;1.50;;;;;;;11.17;62.28;100040.52;1408352;92;21466;-80
2022/05/23 01:11:13;;;;;;;3.83;1.40;;;;;;;11.13;62.03;100043.95;1401469;92;21435;-80
2022/05/23 01:13:40;;;;;;;3.13;1.70;;;;;;;11.07;62.57;100045.92;1398015;92;21941;-80
2022/05/23 01:16:07;;;;;;;4.17;2.13;;;;;;;10.99;64.03;100050.71;1398730;92;21417;-82
2022/05/23 01:18:33;;;;;;;4.17;1.87;;;;;;;10.91;63.21;100052.50;1390566;92;22518;-82
2022/05/23 01:21:03;;;;;;;4.97;2.10;;;;;;;10.82;63.56;100052.45;1385770;93;21667;-81
2022/05/23 01:23:47;;;;;;;4.97;1.77;;;;;;;10.75;63.88;100046.12;1380398;93;23295;-81
2022/05/23 01:26:13;;;;;;;6.20;2.10;;;;;;;10.65;64.58;100048.06;1406298;92;21495;-82
2022/05/23 01:28:42;;;;;;;4.20;2.17;;;;;;;10.59;63.85;100051.34;1394750;92;22839;-81
2022/05/23 01:31:11;;;;;;;6.60;2.00;;;;;;;10.55;64.56;100057.42;1406724;93;22479;-81
2022/05/23 01:33:39;;;;;;;3.77;2.13;;;;;;;10.50;65.70;100053.58;1409986;92;23695;-81
2022/05/23 01:36:07;;;;;;;3.33;1.40;;;;;;;10.47;67.27;100049.92;1409674;91;21443;-80
2022/05/23 01:38:33;;;;;;;6.43;1.37;;;;;;;10.43;66.43;100052.56;1410850;93;21709;-81
2022/05/23 01:40:59;;;;;;;6.67;2.00;;;;;;;10.42;66.07;100049.59;1396203;92;21542;-81
2022/05/23 01:43:26;;;;;;;4.77;2.23;;;;;;;10.40;65.75;100045.77;1386783;92;21467;-81
2022/05/23 01:45:52;;;;;;;4.90;1.33;;;;;;;10.36;67.32;100045.25;1393129;92;21640;-81
2022/05/23 01:48:19;;;;;;;9.53;1.83;;;;;;;10.29;67.04;100046.02;1396102;93;22750;-81
2022/05/23 01:50:45;;;;;;;5.73;2.27;;;;;;;10.25;67.21;100048.12;1397854;92;22853;-80
2022/05/23 01:53:11;;;;;;;3.17;2.10;;;;;;;10.21;66.34;100041.95;1405808;92;21533;-81
2022/05/23 01:55:38;;;;;;;8.37;1.70;;;;;;;10.18;66.03;100036.48;1396757;92;21401;-81
2022/05/23 01:58:04;;;;;;;7.03;1.90;;;;;;;10.11;68.04;100037.59;1401780;92;22470;-82
2022/05/23 02:03:16;;;;;;;4.63;1.80;;;;;;;9.98;67.70;100042.94;1371452;92;21593;-81
2022/05/23 02:05:42;;;;;;;3.90;1.97;;;;;;;9.93;67.75;100040.27;1401606;93;22632;-82
2022/05/23 02:08:08;;;;;;;3.73;2.13;;;;;;;9.90;68.15;100051.16;1383564;93;21437;-82
2022/05/23 02:10:35;;;;;;;7.20;2.37;;;;;;;9.89;67.19;100042.87;1406264;92;21976;-82
2022/05/23 02:13:02;;;;;;;4.47;2.00;;;;;;;9.91;66.91;100051.98;1412918;92;21688;-82
2022/05/23 02:15:32;;;;;;;6.37;3.60;;;;;;;9.91;67.25;100047.52;1400462;92;21495;-80
2022/05/23 02:18:03;;;;;;;6.93;2.90;;;;;;;9.94;67.14;100064.39;1411721;91;22861;-80
2022/05/23 02:20:29;;;;;;;;;;;;;;;9.93;67.42;100055.31;1407854;92;22400;-79
2022/05/23 02:22:56;;;;;;;3.23;1.93;;;;;;;9.92;69.03;100061.06;1400087;92;20440;-79
2022/05/23 02:25:25;;;;;;;10.80;1.93;;;;;;;9.94;67.52;100064.39;1403940;93;21480;-79
2022/05/23 02:27:51;;;;;;;5.97;1.60;;;;;;;9.94;67.98;100056.96;1405166;92;21503;-80
2022/05/23 02:30:19;;;;;;;5.23;1.80;;;;;;;9.93;67.81;100057.45;1413777;93;21738;-80
2022/05/23 02:32:45;;;;;;;8.20;2.33;;;;;;;9.91;67.48;100054.63;1406072;92;21602;-80
2022/05/23 02:35:15;;;;;;;3.97;1.83;;;;;;;9.88;68.21;100050.97;1390484;92;21509;-80
2022/05/23 02:37:41;;;;;;;3.93;1.87;;;;;;;9.81;68.43;100053.39;1381899;92;21467;-80
2022/05/23 02:40:10;;;;;;;3.37;1.37;;;;;;;9.75;69.31;100055.30;1401770;92;21563;-79
2022/05/23 02:42:36;;;;;;;7.63;1.43;;;;;;;9.71;70.06;100057.91;1386192;93;21631;-79
2022/05/23 02:45:09;;;;;;;5.73;1.73;;;;;;;9.64;70.99;100058.19;1385249;92;22469;-79
2022/05/23 02:47:34;;;;;;;4.95;2.70;;;;;;;9.59;71.34;100057.80;1392292;92;22592;-79
2022/05/23 02:50:01;;;;;;;5.87;2.53;;;;;;;9.55;69.87;100053.78;1397278;92;21973;-80
2022/05/23 02:52:27;;;;;;;4.23;2.10;;;;;;;9.53;70.48;100050.48;1405382;92;21421;-80
2022/05/23 02:54:53;;;;;;;10.40;2.93;;;;;;;9.51;69.92;100050.62;1400511;92;22726;-80
2022/05/23 02:57:20;;;;;;;4.77;1.97;;;;;;;9.48;71.00;100047.78;1396916;92;21480;-79
2022/05/23 02:59:46;;;;;;;5.10;2.10;;;;;;;9.46;70.69;100051.55;1411856;92;22013;-79
2022/05/23 03:04:57;;;;;;;6.30;1.77;;;;;;;9.45;70.32;100049.41;1395204;92;21550;-81
2022/05/23 03:07:23;;;;;;;6.43;2.13;;;;;;;9.47;70.64;100052.73;1396145;92;21474;-81
2022/05/23 03:09:49;;;;;;;6.30;2.67;;;;;;;9.49;71.17;100048.14;1386217;92;21518;-80
2022/05/23 03:12:15;;;;;;;4.53;2.23;;;;;;;9.55;70.88;100052.46;1388225;92;21446;-81
2022/05/23 03:14:42;;;;;;;6.80;1.67;;;;;;;9.58;70.77;100046.41;1378937;92;21460;-81
2022/05/23 03:17:08;;;;;;;7.67;2.23;;;;;;;9.62;70.25;100053.54;1409774;92;21561;-80
2022/05/23 03:19:39;;;;;;;4.27;1.90;;;;;;;9.62;70.51;100048.25;1379062;92;21686;-81
2022/05/23 03:27:38;;;;;;;6.83;2.60;;;;;;;9.61;69.34;100051.86;1369679;94;22676;-80
2022/05/23 03:30:06;;;;;;;6.30;2.07;;;;;;;9.59;70.23;100056.48;1384784;94;21448;-81
2022/05/23 03:32:33;;;;;;;7.33;1.77;;;;;;;9.55;71.00;100059.06;1394025;92;22295;-81
2022/05/23 03:35:01;;;;;;;7.97;2.63;;;;;;;9.52;72.71;100061.52;1393111;92;22241;-80
2022/05/23 03:37:28;;;;;;;5.83;2.53;;;;;;;9.55;71.91;100057.74;1394928;92;21616;-81
2022/05/23 03:39:54;;;;;;;2.53;1.47;;;;;;;9.61;72.28;100059.78;1373802;93;21556;-80
2022/05/23 03:42:20;;;;;;;6.03;2.13;;;;;;;9.69;72.50;100069.12;1389274;93;21616;-81
2022/05/23 03:44:48;;;;;;;6.77;2.50;;;;;;;9.77;71.57;100070.52;1387170;93;21483;-82
2022/05/23 03:47:14;;;;;;;9.53;2.47;;;;;;;9.83;72.28;100069.91;1390426;93;21430;-82
2022/05/23 03:49:40;;;;;;;6.07;2.70;;;;;;;9.90;70.53;100069.66;1387624;93;22280;-82
2022/05/23 03:52:06;;;;;;;5.50;1.67;;;;;;;9.97;70.67;100067.73;1397749;93;21423;-82
2022/05/23 03:54:33;;;;;;;3.97;2.40;;;;;;;10.00;70.53;100063.45;1403137;92;21458;-82
2022/05/23 03:57:01;;;;;;;6.10;2.63;;;;;;;10.05;70.64;100065.16;1396385;92;21348;-81
2022/05/23 03:59:28;;;;;;;5.10;2.93;;;;;;;10.11;70.23;100065.86;1408865;93;23604;-82
2022/05/23 04:01:57;;;;;;;4.43;2.40;;;;;;;10.19;70.94;100060.64;1390046;93;21592;-81
2022/05/23 04:04:26;;;;;;;9.50;2.20;;;;;;;10.28;71.81;100059.73;1392444;93;21488;-79
2022/05/23 04:06:53;;;;;;;3.43;1.90;;;;;;;10.39;71.30;100058.16;1398734;93;21444;-80
2022/05/23 04:09:19;;;;;;;6.60;2.20;;;;;;;10.51;71.40;100059.23;1391612;93;22585;-80
2022/05/23 04:11:46;;;;;;;8.70;2.40;;;;;;;10.62;70.74;100058.97;1386960;93;21579;-82
2022/05/23 04:14:14;;;;;;;4.87;2.07;;;;;;;10.72;70.02;100047.76;1382103;93;22613;-81
2022/05/23 04:16:49;;;;;;;5.10;2.00;;;;;;;10.82;70.24;100050.30;1391372;92;21653;-81
2022/05/23 04:19:16;;;;;;;8.40;1.97;;;;;;;10.92;69.79;100047.53;1397385;93;22492;-83
2022/05/23 04:21:45;;;;;;;3.70;1.30;;;;;;;11.02;69.10;100045.09;1400647;92;21460;-85
2022/05/23 04:24:15;;;;;;;5.33;2.17;;;;;;;11.14;68.71;100052.25;1380077;92;21749;-83
2022/05/23 04:26:42;;;;;;;4.45;1.87;;;;;;;11.26;68.38;100049.64;1365296;95;21459;-81
2022/05/23 04:29:09;;;;;;;10.30;1.93;;;;;;;11.39;68.41;100048.33;1374900;93;21492;-81
2022/05/23 04:31:36;;;;;;;7.23;1.60;;;;;;;11.51;67.98;100045.73;1363424;95;21563;-81
2022/05/23 04:36:50;;;;;;;3.93;1.50;;;;;;;11.84;68.23;100044.44;1391018;94;21437;-80
2022/05/23 04:39:17;;;;;;;6.63;1.53;;;;;;;12.03;67.68;100053.43;1386131;93;22482;-81
2022/05/23 04:41:43;;;;;;;3.30;1.53;;;;;;;12.22;66.65;100048.77;1354722;94;21452;-82
2022/05/23 04:44:09;;;;;;;4.43;1.57;;;;;;;12.39;65.55;100048.56;1337162;95;21415;-82
2022/05/23 04:46:36;;;;;;;2.60;1.30;;;;;;;12.56;65.44;100044.05;1375891;94;22515;-82
2022/05/23 04:51:47;;;;;;;3.57;1.40;;;;;;;12.80;63.69;100041.85;1377943;94;22486;-81
2022/05/23 04:54:13;;;;;;;15.63;3.23;;;;;;;12.95;63.50;100041.95;1382392;94;21584;-81
2022/05/23 04:56:39;;;;;;;6.30;2.33;;;;;;;13.04;63.25;100039.59;1375519;94;21429;-81
2022/05/23 04:59:06;;;;;;;5.50;1.63;;;;;;;13.14;63.28;100041.20;1351263;95;21621;-81
2022/05/23 05:01:32;;;;;;;6.37;2.30;;;;;;;13.26;63.54;100047.33;1378990;94;21503;-81
2022/05/23 05:03:58;;;;;;;2.90;1.47;;;;;;;13.35;62.92;100049.44;1367240;95;23683;-81
2022/05/23 05:06:25;;;;;;;30.37;2.60;;;;;;;13.46;62.41;100049.02;1349044;94;21725;-81
2022/05/23 05:08:52;;;;;;;7.37;1.90;;;;;;;13.57;62.19;100052.28;1367340;95;22417;-82
2022/05/23 05:11:18;;;;;;;2.40;1.50;;;;;;;13.68;62.02;100058.02;1374299;95;21482;-82
2022/05/23 05:13:46;;;;;;;4.57;1.70;;;;;;;13.68;60.26;100062.52;1364678;94;22069;-81
2022/05/23 05:16:12;;;;;;;3.07;1.23;;;;;;;13.80;61.09;100069.08;1357196;94;21565;-81
2022/05/23 05:18:39;;;;;;;7.63;1.50;;;;;;;13.88;60.64;100064.20;1368510;94;22629;-83
2022/05/23 05:21:09;;;;;;;4.00;1.80;;;;;;;13.92;60.53;100066.31;1368832;94;21460;-81
2022/05/23 05:23:36;;;;;;;4.07;1.80;;;;;;;13.98;60.09;100062.97;1368879;94;21467;-81
2022/05/23 05:26:05;;;;;;;3.03;1.50;;;;;;;14.04;59.02;100068.08;1363407;94;21423;-80
2022/05/23 05:28:33;;;;;;;6.30;2.57;;;;;;;14.13;59.61;100060.86;1400069;92;22584;-80
2022/05/23 05:31:04;;;;;;;5.20;1.70;;;;;;;14.19;59.38;100063.62;1397854;92;21674;-82
2022/05/23 05:33:36;;;;;;;3.23;1.70;;;;;;;14.21;58.31;100057.62;1378041;93;21638;-82
2022/05/23 05:36:06;;;;;;;3.83;1.97;;;;;;;14.25;58.15;100057.25;1399800;93;22391;-81
2022/05/23 05:38:39;;;;;;;;;;;;;;;14.26;57.67;100060.23;1404267;93;21547;-80
2022/05/23 05:41:12;;;;;;;3.33;1.90;;;;;;;14.31;57.69;100053.87;1403585;93;20328;-81
2022/05/23 05:43:50;;;;;;;4.07;1.60;;;;;;;14.40;58.13;100049.60;1415535;92;21698;-81
2022/05/23 05:46:30;;;;;;;5.90;1.70;;;;;;;14.54;57.83;100042.67;1403575;92;21511;-81
2022/05/23 05:49:00;;;;;;;4.65;2.30;;;;;;;14.64;57.81;100045.06;1405957;93;21408;-81
2022/05/23 05:51:27;;;;;;;5.53;2.00;;;;;;;14.75;57.00;100052.59;1403194;92;22141;-81
2022/05/23 05:53:54;;;;;;;2.87;1.80;;;;;;;14.85;56.91;100041.68;1380364;93;23345;-80
2022/05/23 05:56:20;;;;;;;10.03;2.23;;;;;;;14.90;56.26;100039.27;1405599;92;21533;-80
2022/05/23 05:58:48;;;;;;;3.00;1.90;;;;;;;15.01;56.02;100037.97;1386649;92;21489;-81
2022/05/23 06:01:14;;;;;;;5.13;2.10;;;;;;;15.18;56.21;100050.08;1387889;92;21416;-81
2022/05/23 06:03:40;;;;;;;5.53;2.23;;;;;;;15.30;55.83;100049.91;1400909;92;21414;-81
2022/05/23 06:11:36;;;;;;;8.60;2.03;;;;;;;15.58;55.79;100041.20;1387932;92;21454;-80
2022/05/23 06:14:04;;;;;;;5.30;2.80;;;;;;;15.67;54.40;100048.05;1386085;92;21668;-81
2022/05/23 06:16:34;;;;;;;6.67;2.57;;;;;;;15.70;53.76;100053.55;1398192;92;21542;-80
2022/05/23 06:19:00;;;;;;;5.08;2.52;;;;;;;15.79;53.30;100057.26;1416773;91;22604;-80
2022/05/23 06:21:28;;;;;;;4.80;2.60;;;;;;;15.89;51.32;100062.78;1388176;91;21432;-81
2022/05/23 06:23:55;;;;;;;7.60;2.70;;;;;;;16.01;50.84;100061.23;1388537;92;21474;-81
2022/05/23 06:26:26;;;;;;;3.17;2.20;;;;;;;16.08;50.58;100060.77;1390683;92;21482;-81
2022/05/23 06:28:53;;;;;;;5.50;2.70;;;;;;;16.21;51.47;100062.23;1398465;92;21598;-81
2022/05/23 06:31:20;;;;;;;12.57;2.27;;;;;;;16.37;50.82;100057.13;1394196;92;21526;-81
2022/05/23 06:33:47;;;;;;;5.73;2.30;;;;;;;16.46;49.71;100059.14;1406791;92;22536;-81
2022/05/23 06:36:14;;;;;;;7.27;1.80;;;;;;;16.52;49.05;100054.86;1400379;91;22485;-81
2022/05/23 06:38:41;;;;;;;3.10;2.27;;;;;;;16.64;49.73;100050.10;1381487;92;21452;-80
2022/05/23 06:41:09;;;;;;;7.30;2.23;;;;;;;16.63;49.19;100052.47;1394928;91;23036;-80
2022/05/23 06:43:39;;;;;;;5.57;2.23;;;;;;;16.60;48.91;100048.86;1404519;91;21460;-80
2022/05/23 06:46:05;;;;;;;10.43;2.30;;;;;;;16.72;49.82;100047.80;1374181;92;21620;-81
2022/05/23 06:48:34;;;;;;;5.33;1.90;;;;;;;16.80;49.08;100058.84;1385396;92;21362;-81
2022/05/23 06:51:02;;;;;;;8.60;2.13;;;;;;;16.84;48.54;100054.78;1404380;91;22322;-80
2022/05/23 06:53:29;;;;;;;3.43;2.07;;;;;;;16.82;47.56;100054.14;1371603;93;22445;-81
2022/05/23 06:55:56;;;;;;;3.80;2.20;;;;;;;16.82;47.73;100054.14;1373141;94;21616;-81
2022/05/23 06:58:24;;;;;;;23.63;3.57;;;;;;;16.74;48.22;100055.59;1378858;94;21519;-80
2022/05/23 07:00:52;;;;;;;10.30;2.20;;;;;;;16.82;48.08;100058.15;1382050;91;21672;-80
2022/05/23 07:03:19;;;;;;;3.53;2.17;;;;;;;17.03;48.31;100056.73;1379555;93;21429;-80
2022/05/23 07:14:01;;;;;;;5.93;1.80;;;;;;;17.37;46.24;100064.35;1399930;91;21495;-92
2022/05/23 07:16:29;;;;;;;6.10;2.60;;;;;;;17.41;45.85;100060.27;1409392;91;21420;-92
2022/05/23 07:18:56;;;;;;;8.47;1.80;;;;;;;17.62;46.03;100055.80;1396358;91;21466;-92
2022/05/23 07:21:24;;;;;;;13.80;2.30;;;;;;;17.72;43.82;100050.37;1395647;91;21318;-93
2022/05/23 07:23:51;;;;;;;2.30;1.97;;;;;;;17.84;44.35;100050.62;1429850;91;22501;-95
2022/05/23 07:26:19;;;;;;;5.83;1.90;;;;;;;17.79;43.11;100048.54;1407690;91;21348;-91
2022/05/23 07:28:47;;;;;;;5.93;2.03;;;;;;;17.77;43.16;100049.73;1411006;91;21357;-88
2022/05/23 07:31:14;;;;;;;4.23;2.57;;;;;;;17.80;43.49;100050.17;1384360;91;21318;-89
2022/05/23 07:33:40;;;;;;;5.73;1.80;;;;;;;17.96;43.74;100053.51;1400922;91;21461;-93
2022/05/23 07:36:08;;;;;;;3.30;2.20;;;;;;;18.05;43.53;100042.90;1393926;91;21465;-92
2022/05/23 07:38:37;;;;;;;4.70;1.97;;;;;;;18.24;44.55;100042.56;1407624;91;21608;-91
2022/05/23 07:41:07;;;;;;;8.90;2.10;;;;;;;18.36;43.13;100047.63;1409486;91;22063;-90
2022/05/23 07:43:36;;;;;;;3.20;1.90;;;;;;;18.45;42.90;100048.23;1417065;91;22550;-92
2022/05/23 07:46:09;;;;;;;8.83;2.23;;;;;;;18.66;43.02;100038.59;1366310;94;21470;-90
2022/05/23 07:48:33;;;;;;;1.90;1.70;;;;;;;18.75;42.08;100050.47;1382127;94;21606;-89
2022/05/23 07:50:59;;;;;;;7.00;2.23;;;;;;;18.66;40.69;100056.55;1366200;94;21570;-90
2022/05/23 08:01:39;;;;;;;6.73;2.10;;;;;;;18.83;41.55;100040.34;1376292;94;21481;-90
2022/05/23 08:04:08;;;;;;;3.07;2.20;;;;;;;18.93;41.41;100038.55;1384850;93;21511;-91
2022/05/23 08:06:34;;;;;;;3.80;1.80;;;;;;;19.05;41.54;100040.89;1378064;94;21510;-90
2022/05/23 08:09:00;;;;;;;3.83;2.00;;;;;;;19.05;41.06;100034.72;1369641;94;21333;-90
2022/05/23 08:11:26;;;;;;;4.78;1.80;;;;;;;19.23;41.82;100032.14;1370097;94;22551;-90
2022/05/23 08:13:56;;;;;;;2.27;1.37;;;;;;;19.30;41.72;100039.63;1390266;93;21489;-88
2022/05/23 08:16:23;;;;;;;2.00;1.45;;;;;;;19.25;40.75;100041.30;1378578;94;21421;-88
2022/05/23 08:18:49;;;;;;;6.47;2.00;;;;;;;19.22;39.93;100035.88;1380524;94;21558;-90
2022/05/23 08:21:16;;;;;;;7.08;1.80;;;;;;;19.34;40.53;100031.99;1378342;93;22346;-88
2022/05/23 08:23:43;;;;;;;3.25;1.32;;;;;;;19.51;40.33;100025.61;1389845;91;21510;-88
2022/05/23 08:26:10;;;;;;;4.47;1.60;;;;;;;19.46;40.15;100030.80;1398771;91;21609;-88
2022/05/23 08:28:37;;;;;;;2.20;1.87;;;;;;;19.90;41.49;100030.42;1405997;91;21590;-89
2022/05/23 08:31:03;;;;;;;11.40;1.55;;;;;;;20.30;40.60;100022.84;1412081;91;21458;-89
2022/05/23 08:33:29;;;;;;;6.97;1.85;;;;;;;20.41;39.11;100020.77;1414908;91;21458;-89
2022/05/23 08:35:55;;;;;;;7.78;1.80;;;;;;;20.69;40.48;100018.16;1417910;91;21473;-88
2022/05/23 08:38:22;;;;;;;2.98;1.57;;;;;;;20.76;38.47;100020.76;1409119;91;21494;-90
2022/05/23 08:40:57;;;;;;;3.60;2.22;;;;;;;20.57;38.08;100026.14;1401766;93;21413;-90
2022/05/23 08:43:36;;;;;;;4.97;2.20;;;;;;;20.57;38.67;100025.30;1349394;96;21529;-88
2022/05/23 08:46:04;;;;;;;3.73;1.87;;;;;;;20.67;38.70;100008.95;1367101;95;21690;-89
2022/05/23 08:48:48;;;;;;;2.58;2.20;;;;;;;20.80;38.93;100003.96;1355121;95;21643;-89
2022/05/23 08:51:19;;;;;;;3.02;1.80;;;;;;;20.84;38.73;99998.95;1370982;94;21740;-89
2022/05/23 08:54:00;;;;;;;1.82;1.50;;;;;;;20.46;36.94;100004.00;1400686;93;22523;-90
2022/05/23 08:56:39;;;;;;;3.15;1.52;;;;;;;20.41;38.57;99995.77;1411033;92;22517;-88
2022/05/23 08:59:23;;;;;;;2.30;1.82;;;;;;;20.63;37.26;99999.70;1414588;91;21399;-84
2022/05/23 09:02:02;;;;;;;6.95;1.87;;;;;;;20.63;38.26;99998.36;1399490;90;22428;-88
2022/05/23 09:04:52;;;;;;;2.52;1.45;;;;;;;20.41;37.38;99991.21;1398149;92;21430;-88
2022/05/23 09:07:33;;;;;;;2.12;1.80;;;;;;;20.59;38.61;99982.36;1391626;93;21512;-89
2022/05/23 09:10:04;;;;;;;5.42;1.80;;;;;;;20.55;37.42;99981.17;1405656;92;21539;-89
2022/05/23 09:12:30;;;;;;;4.67;1.85;;;;;;;20.64;39.06;99984.39;1404020;93;21501;-90
2022/05/23 09:14:58;;;;;;;4.72;2.20;;;;;;;20.69;37.65;99979.16;1384479;93;21380;-89
2022/05/23 09:17:31;;;;;;;4.55;1.50;;;;;;;20.80;37.25;99969.50;1394321;93;21580;-91
2022/05/23 09:20:18;;;;;;;5.55;2.40;;;;;;;20.83;35.33;99975.27;1405008;93;23041;-91
2022/05/23 09:22:57;;;;;;;3.17;2.17;;;;;;;21.23;36.67;99973.91;1371219;94;22563;-90
2022/05/23 09:25:26;;;;;;;2.30;1.87;;;;;;;21.66;36.33;99974.23;1414022;93;21487;-90
2022/05/23 09:33:46;;;;;;;2.00;1.70;;;;;;;21.33;34.74;99962.89;1391205;92;21476;-87
2022/05/23 09:36:30;;;;;;;1.98;1.52;;;;;;;21.03;35.67;99955.34;1389063;92;21701;-83
2022/05/23 09:39:01;;;;;;;5.10;1.65;;;;;;;20.96;35.64;99958.13;1402203;92;21487;-88
2022/05/23 09:49:46;;;;;;;9.30;1.73;;;;;;;21.18;34.91;99955.24;1384807;92;22417;-87
2022/05/23 09:52:32;;;;;;;1.70;1.60;;;;;;;20.76;35.26;99950.84;1395981;92;22592;-87
2022/05/23 09:55:05;;;;;;;2.65;1.75;;;;;;;20.56;35.54;99953.23;1393615;93;21410;-86
2022/05/23 09:57:45;;;;;;;3.10;1.72;;;;;;;20.43;35.75;99950.69;1395410;92;22381;-87
2022/05/23 10:00:26;;;;;;;2.47;1.32;;;;;;;20.38;36.24;99955.37;1402093;92;21633;-87
2022/05/23 10:03:01;;;;;;;5.35;1.67;;;;;;;20.51;35.39;99955.73;1395199;92;21474;-87
2022/05/23 10:05:41;;;;;;;1.35;1.12;;;;;;;20.41;35.86;99952.77;1388647;92;21571;-87
2022/05/23 10:08:16;;;;;;;;;;;;;;;20.49;35.58;99947.91;1391355;92;21678;-86
2022/05/23 10:10:57;;;;;;;4.05;1.55;;;;;;;20.95;36.12;99953.81;1395854;92;20611;-86
2022/05/23 10:13:38;;;;;;;2.42;1.62;;;;;;;21.36;35.59;99948.16;1405964;91;22343;-87
2022/05/23 10:16:13;;;;;;;;;;;;;;;21.65;35.07;99959.14;1410661;91;21602;-88
2022/05/23 10:19:03;;;;;;;2.25;1.80;;;;;;;21.89;33.11;99949.20;1402459;91;20473;-86
2022/05/23 10:21:40;;;;;;;2.02;1.30;;;;;;;22.34;34.44;99953.50;1414337;91;21447;-86
2022/05/23 10:24:20;;;;;;;2.30;1.50;;;;;;;22.76;31.16;99947.91;1388684;93;21658;-87
2022/05/23 10:27:04;;;;;;;2.87;1.77;;;;;;;22.53;31.48;99949.61;1388509;92;22576;-87
2022/05/23 10:29:54;;;;;;;7.37;1.35;;;;;;;22.00;31.87;99953.25;1403182;91;21450;-83
2022/05/23 10:32:37;;;;;;;4.00;1.40;;;;;;;21.40;33.02;99946.13;1379368;92;22473;-85
2022/05/23 10:35:24;;;;;;;1.70;1.60;;;;;;;21.46;33.17;99945.73;1378302;94;21502;-88
2022/05/23 10:37:51;;;;;;;2.27;1.70;;;;;;;21.39;32.63;99935.08;1386053;94;21475;-85
2022/05/23 10:43:21;;;;;;;2.35;1.90;;;;;;;21.49;34.44;99947.16;1376628;94;22282;-82
2022/05/23 10:45:56;;;;;;;2.35;2.02;;;;;;;21.44;34.07;99950.55;1381830;94;21391;-81
2022/05/23 10:48:50;;;;;;;3.60;1.80;;;;;;;21.45;34.63;99941.95;1376519;93;21443;-80
2022/05/23 10:51:44;;;;;;;1.80;1.67;;;;;;;21.30;34.20;99942.35;1369987;94;21535;-83
2022/05/23 10:54:22;;;;;;;4.83;1.57;;;;;;;21.38;34.91;99933.98;1367019;94;22204;-81
2022/05/23 10:57:05;;;;;;;2.95;1.90;;;;;;;21.64;33.26;99946.20;1380730;94;21625;-82
2022/05/23 10:59:53;;;;;;;1.62;1.32;;;;;;;21.96;32.81;99944.00;1371851;94;21513;-87
2022/05/23 11:03:00;;;;;;;1.70;1.60;;;;;;;22.34;33.70;99924.38;1370822;94;21594;-84
2022/05/23 11:05:47;;;;;;;4.17;2.10;;;;;;;22.88;32.87;99932.50;1380011;94;21612;-86
2022/05/23 11:08:33;;;;;;;7.22;2.20;;;;;;;22.69;31.28;99928.34;1385688;94;21510;-84
2022/05/23 11:11:20;;;;;;;4.53;1.72;;;;;;;22.28;32.57;99946.36;1370350;94;21731;-84
2022/05/23 11:14:23;;;;;;;1.60;1.50;;;;;;;21.93;32.31;99942.31;1363872;94;22451;-83
2022/05/23 11:17:06;;;;;;;5.72;1.90;;;;;;;21.70;33.03;99935.84;1386330;93;21436;-84
2022/05/23 11:19:49;;;;;;;4.72;1.90;;;;;;;22.20;32.85;99924.63;1369478;94;22335;-82
2022/05/23 11:22:20;;;;;;;2.10;1.72;;;;;;;22.20;32.85;99924.63;1376087;94;21563;-84
2022/05/23 11:25:18;;;;;;;2.50;1.70;;;;;;;22.42;31.62;99928.88;1367364;94;21492;-82
2022/05/23 11:33:47;;;;;;;7.95;1.62;;;;;;;23.39;30.88;99919.96;1377270;94;21626;-83
2022/05/23 11:36:28;;;;;;;1.70;1.60;;;;;;;22.98;31.46;99921.91;1351026;93;21665;-83
2022/05/23 11:38:53;;;;;;;4.22;1.75;;;;;;;22.53;31.42;99924.52;1369503;94;22555;-82
2022/05/23 11:41:41;;;;;;;2.55;1.57;;;;;;;21.68;32.35;99907.51;1371328;94;21632;-84
2022/05/23 11:44:47;;;;;;;12.43;2.55;;;;;;;21.68;32.35;99907.51;1367181;94;21587;-82
2022/05/23 11:47:26;;;;;;;5.17;1.60;;;;;;;21.79;33.42;99925.55;1381586;94;21542;-83
2022/05/23 11:50:10;;;;;;;5.33;1.47;;;;;;;22.01;32.08;99917.19;1363244;93;21491;-84
2022/05/23 11:52:45;;;;;;;21.37;2.70;;;;;;;22.48;31.79;99915.79;1365030;94;21683;-83
2022/05/23 11:55:54;;;;;;;2.90;1.67;;;;;;;22.48;31.79;99915.79;1386196;93;22414;-83
2022/05/23 11:58:38;;;;;;;2.60;1.70;;;;;;;22.95;31.63;99911.60;1372660;93;22504;-82
2022/05/23 12:01:16;;;;;;;3.67;1.65;;;;;;;23.01;30.62;99914.41;1372237;93;21387;-83
2022/05/23 12:03:54;;;;;;;5.45;1.90;;;;;;;23.15;30.67;99910.34;1372966;94;22584;-83
2022/05/23 12:06:32;;;;;;;3.58;1.75;;;;;;;23.43;30.71;99904.08;1372774;94;21431;-83
2022/05/23 12:09:19;;;;;;;17.85;2.70;;;;;;;23.63;31.70;99906.30;1369796;94;21574;-83
2022/05/23 12:11:52;;;;;;;7.55;2.00;;;;;;;23.79;28.71;99896.55;1374505;94;21536;-83
2022/05/23 12:14:25;;;;;;;13.65;2.42;;;;;;;23.63;29.46;99898.19;1364438;94;22467;-83
2022/05/23 12:17:09;;;;;;;3.40;1.72;;;;;;;23.28;28.52;99897.90;1382641;94;21459;-83
2022/05/23 12:19:46;;;;;;;2.37;2.02;;;;;;;23.43;29.44;99897.33;1383334;94;21482;-83
2022/05/23 12:22:27;;;;;;;3.30;1.80;;;;;;;23.57;29.70;99902.70;1377741;94;21542;-83
2022/05/23 12:25:12;;;;;;;2.45;1.72;;;;;;;23.82;29.33;99899.61;1376299;94;21473;-83
2022/05/23 12:27:52;;;;;;;1.75;1.45;;;;;;;23.87;28.79;99894.25;1366499;93;21492;-83
2022/05/23 12:30:24;;;;;;;4.20;2.20;;;;;;;23.70;29.70;99891.27;1384688;93;21653;-83
2022/05/23 12:33:00;;;;;;;7.90;2.00;;;;;;;23.38;29.91;99891.84;1393904;92;21733;-84
2022/05/23 12:35:48;;;;;;;6.83;2.27;;;;;;;22.91;29.68;99897.47;1401628;92;21406;-83
2022/05/23 12:38:50;;;;;;;5.10;2.00;;;;;;;22.98;31.05;99892.23;1407947;92;22597;-82
2022/05/23 12:41:38;;;;;;;7.22;2.45;;;;;;;23.55;31.51;99886.44;1386365;93;21504;-83
2022/05/23 12:44:59;;;;;;;2.12;1.50;;;;;;;23.82;29.95;99884.75;1403709;93;21526;-84
2022/05/23 12:48:03;;;;;;;3.98;1.75;;;;;;;23.71;29.21;99884.81;1391842;92;21694;-83
2022/05/23 12:50:38;;;;;;;10.03;2.45;;;;;;;24.08;29.53;99881.02;1397891;92;22325;-83
2022/05/23 12:53:43;;;;;;;9.63;1.90;;;;;;;24.50;29.63;99881.86;1407028;92;22583;-84
2022/05/23 12:56:46;;;;;;;5.47;1.80;;;;;;;24.73;28.64;99878.87;1385406;92;21504;-83
2022/05/23 12:59:27;;;;;;;4.55;1.67;;;;;;;25.07;28.58;99884.64;1403926;92;21450;-83